Weather at Aviosuperficie "LYRA 34"

Public forecast

Using degrees Celsius for public forecast. Weather courtesy of forecast.io.

Closest aviation weather report (METAR) to Aviosuperficie "LYRA 34"

Closest report is Forlì Airport, 19.1 nm (35.4 km) SSE. Retrieved 2021/07/24 19:50 UTC (1 hour ago):

LIPK 241950Z VRB03KT CAVOK 27/18 Q1010

Closest aviation forecast (TAF) to Aviosuperficie "LYRA 34"

Closest forecast is Forlì Airport, 19.1 nm (35.4 km) SSE. Retrieved 2021/07/24 18:00 UTC (3 hours ago):

TAF LIPK 241700Z 2418/2518 VRB05KT 9999 FEW040 BECMG 2509/2511 22012KT